sensor_id;sensor_type;location;lat;lon;timestamp;P1;durP1;ratioP1;P2;durP2;ratioP2
18206;SDS011;9229;52.354;20.886;2023-06-10T00:04:45;7.13;;;5.28;;
18206;SDS011;9229;52.354;20.886;2023-06-10T00:09:47;6.18;;;5.35;;
18206;SDS011;9229;52.354;20.886;2023-06-10T00:14:52;7.00;;;5.55;;
18206;SDS011;9229;52.354;20.886;2023-06-10T00:19:54;5.50;;;5.20;;
18206;SDS011;9229;52.354;20.886;2023-06-10T00:24:56;6.57;;;5.60;;
18206;SDS011;9229;52.354;20.886;2023-06-10T00:29:59;5.28;;;4.90;;
18206;SDS011;9229;52.354;20.886;2023-06-10T00:35:02;5.82;;;5.10;;
18206;SDS011;9229;52.354;20.886;2023-06-10T00:40:05;6.32;;;5.65;;
18206;SDS011;9229;52.354;20.886;2023-06-10T00:45:11;5.03;;;4.53;;
18206;SDS011;9229;52.354;20.886;2023-06-10T00:50:13;6.90;;;4.90;;
18206;SDS011;9229;52.354;20.886;2023-06-10T00:55:15;5.30;;;4.75;;
18206;SDS011;9229;52.354;20.886;2023-06-10T01:00:20;4.95;;;4.43;;
18206;SDS011;9229;52.354;20.886;2023-06-10T01:05:23;7.45;;;4.75;;
18206;SDS011;9229;52.354;20.886;2023-06-10T01:10:28;5.80;;;4.38;;
18206;SDS011;9229;52.354;20.886;2023-06-10T01:15:36;7.13;;;4.35;;
18206;SDS011;9229;52.354;20.886;2023-06-10T01:20:39;5.85;;;4.45;;
18206;SDS011;9229;52.354;20.886;2023-06-10T01:25:46;6.18;;;4.45;;
18206;SDS011;9229;52.354;20.886;2023-06-10T01:30:58;8.70;;;4.20;;
18206;SDS011;9229;52.354;20.886;2023-06-10T01:36:08;6.40;;;4.68;;
18206;SDS011;9229;52.354;20.886;2023-06-10T01:41:12;8.23;;;4.18;;
18206;SDS011;9229;52.354;20.886;2023-06-10T01:46:18;5.70;;;4.90;;
18206;SDS011;9229;52.354;20.886;2023-06-10T01:51:21;7.03;;;4.13;;
18206;SDS011;9229;52.354;20.886;2023-06-10T01:56:25;6.13;;;4.63;;
18206;SDS011;9229;52.354;20.886;2023-06-10T02:01:26;6.22;;;4.65;;
18206;SDS011;9229;52.354;20.886;2023-06-10T02:06:38;4.72;;;4.32;;
18206;SDS011;9229;52.354;20.886;2023-06-10T02:11:42;5.18;;;4.63;;
18206;SDS011;9229;52.354;20.886;2023-06-10T02:16:44;14.43;;;4.93;;
18206;SDS011;9229;52.354;20.886;2023-06-10T02:21:46;11.23;;;4.82;;
18206;SDS011;9229;52.354;20.886;2023-06-10T02:26:50;7.72;;;4.80;;
18206;SDS011;9229;52.354;20.886;2023-06-10T02:31:53;5.75;;;4.60;;
18206;SDS011;9229;52.354;20.886;2023-06-10T02:36:56;5.88;;;4.55;;
18206;SDS011;9229;52.354;20.886;2023-06-10T02:42:00;7.10;;;4.72;;
18206;SDS011;9229;52.354;20.886;2023-06-10T02:47:03;5.22;;;4.78;;
18206;SDS011;9229;52.354;20.886;2023-06-10T02:52:08;7.55;;;4.90;;
18206;SDS011;9229;52.354;20.886;2023-06-10T02:57:13;5.05;;;4.57;;
18206;SDS011;9229;52.354;20.886;2023-06-10T03:02:15;7.75;;;4.45;;
18206;SDS011;9229;52.354;20.886;2023-06-10T03:07:23;7.40;;;4.60;;
18206;SDS011;9229;52.354;20.886;2023-06-10T03:12:42;5.30;;;4.55;;
18206;SDS011;9229;52.354;20.886;2023-06-10T03:17:44;5.95;;;4.60;;
18206;SDS011;9229;52.354;20.886;2023-06-10T03:22:47;8.25;;;4.80;;
18206;SDS011;9229;52.354;20.886;2023-06-10T03:27:51;5.03;;;4.53;;
18206;SDS011;9229;52.354;20.886;2023-06-10T03:32:53;10.95;;;4.97;;
18206;SDS011;9229;52.354;20.886;2023-06-10T03:37:59;5.60;;;4.53;;
18206;SDS011;9229;52.354;20.886;2023-06-10T03:43:03;7.75;;;5.05;;
18206;SDS011;9229;52.354;20.886;2023-06-10T03:48:06;8.57;;;5.00;;
18206;SDS011;9229;52.354;20.886;2023-06-10T03:53:17;6.30;;;4.78;;
18206;SDS011;9229;52.354;20.886;2023-06-10T03:58:24;6.70;;;4.75;;
18206;SDS011;9229;52.354;20.886;2023-06-10T04:03:26;4.50;;;4.05;;
18206;SDS011;9229;52.354;20.886;2023-06-10T04:08:30;4.88;;;4.45;;
18206;SDS011;9229;52.354;20.886;2023-06-10T04:13:35;7.05;;;5.10;;
18206;SDS011;9229;52.354;20.886;2023-06-10T04:18:38;7.22;;;5.00;;
18206;SDS011;9229;52.354;20.886;2023-06-10T04:23:42;5.65;;;4.28;;
18206;SDS011;9229;52.354;20.886;2023-06-10T04:28:46;4.80;;;4.40;;
18206;SDS011;9229;52.354;20.886;2023-06-10T04:33:49;11.95;;;4.63;;
18206;SDS011;9229;52.354;20.886;2023-06-10T04:38:52;8.02;;;4.85;;
18206;SDS011;9229;52.354;20.886;2023-06-10T04:43:56;6.35;;;4.13;;
18206;SDS011;9229;52.354;20.886;2023-06-10T04:49:00;9.27;;;4.65;;
18206;SDS011;9229;52.354;20.886;2023-06-10T04:54:02;4.85;;;4.10;;
18206;SDS011;9229;52.354;20.886;2023-06-10T04:59:06;6.05;;;4.85;;
18206;SDS011;9229;52.354;20.886;2023-06-10T05:04:08;5.13;;;4.57;;
18206;SDS011;9229;52.354;20.886;2023-06-10T05:09:10;39.67;;;6.82;;
18206;SDS011;9229;52.354;20.886;2023-06-10T05:14:13;7.07;;;4.72;;
18206;SDS011;9229;52.354;20.886;2023-06-10T05:19:17;11.02;;;4.68;;
18206;SDS011;9229;52.354;20.886;2023-06-10T05:24:19;7.72;;;4.70;;
18206;SDS011;9229;52.354;20.886;2023-06-10T05:29:22;4.55;;;4.18;;
18206;SDS011;9229;52.354;20.886;2023-06-10T05:34:24;14.50;;;4.50;;
18206;SDS011;9229;52.354;20.886;2023-06-10T05:39:28;5.68;;;4.20;;
18206;SDS011;9229;52.354;20.886;2023-06-10T05:44:32;8.77;;;4.32;;
18206;SDS011;9229;52.354;20.886;2023-06-10T05:49:34;5.63;;;4.90;;
18206;SDS011;9229;52.354;20.886;2023-06-10T05:54:36;4.70;;;4.20;;
18206;SDS011;9229;52.354;20.886;2023-06-10T05:59:39;7.55;;;4.70;;
18206;SDS011;9229;52.354;20.886;2023-06-10T06:04:41;8.85;;;4.65;;
18206;SDS011;9229;52.354;20.886;2023-06-10T06:09:43;7.22;;;4.28;;
18206;SDS011;9229;52.354;20.886;2023-06-10T06:14:47;5.97;;;3.97;;
18206;SDS011;9229;52.354;20.886;2023-06-10T06:19:49;13.98;;;4.10;;
18206;SDS011;9229;52.354;20.886;2023-06-10T06:24:52;5.97;;;4.07;;
18206;SDS011;9229;52.354;20.886;2023-06-10T06:29:56;4.55;;;4.18;;
18206;SDS011;9229;52.354;20.886;2023-06-10T06:34:58;6.65;;;4.07;;
18206;SDS011;9229;52.354;20.886;2023-06-10T06:40:00;7.85;;;4.28;;
18206;SDS011;9229;52.354;20.886;2023-06-10T06:45:05;9.38;;;3.88;;
18206;SDS011;9229;52.354;20.886;2023-06-10T06:50:08;9.52;;;4.32;;
18206;SDS011;9229;52.354;20.886;2023-06-10T06:55:10;15.35;;;4.53;;
18206;SDS011;9229;52.354;20.886;2023-06-10T07:00:14;6.43;;;4.47;;
18206;SDS011;9229;52.354;20.886;2023-06-10T07:05:18;7.85;;;4.18;;
18206;SDS011;9229;52.354;20.886;2023-06-10T07:10:20;12.20;;;4.75;;
18206;SDS011;9229;52.354;20.886;2023-06-10T07:15:24;5.93;;;4.90;;
18206;SDS011;9229;52.354;20.886;2023-06-10T07:20:26;6.38;;;4.75;;
18206;SDS011;9229;52.354;20.886;2023-06-10T07:25:30;7.20;;;4.70;;
18206;SDS011;9229;52.354;20.886;2023-06-10T07:30:34;47.28;;;6.68;;
18206;SDS011;9229;52.354;20.886;2023-06-10T07:35:36;15.43;;;4.53;;
18206;SDS011;9229;52.354;20.886;2023-06-10T07:40:38;7.05;;;4.20;;
18206;SDS011;9229;52.354;20.886;2023-06-10T07:45:41;7.55;;;5.47;;
18206;SDS011;9229;52.354;20.886;2023-06-10T07:50:44;10.68;;;5.03;;
18206;SDS011;9229;52.354;20.886;2023-06-10T07:55:46;16.00;;;5.07;;
18206;SDS011;9229;52.354;20.886;2023-06-10T08:00:49;7.40;;;4.28;;
18206;SDS011;9229;52.354;20.886;2023-06-10T08:05:52;6.22;;;4.20;;
18206;SDS011;9229;52.354;20.886;2023-06-10T08:10:54;4.80;;;4.40;;
18206;SDS011;9229;52.354;20.886;2023-06-10T08:15:57;7.55;;;4.40;;
18206;SDS011;9229;52.354;20.886;2023-06-10T08:20:59;5.85;;;5.00;;
18206;SDS011;9229;52.354;20.886;2023-06-10T08:26:02;11.85;;;4.68;;
18206;SDS011;9229;52.354;20.886;2023-06-10T08:31:05;9.55;;;4.40;;
18206;SDS011;9229;52.354;20.886;2023-06-10T08:36:07;6.07;;;4.63;;
18206;SDS011;9229;52.354;20.886;2023-06-10T08:41:09;6.43;;;4.30;;
18206;SDS011;9229;52.354;20.886;2023-06-10T08:46:15;4.40;;;3.85;;
18206;SDS011;9229;52.354;20.886;2023-06-10T08:51:17;5.50;;;4.30;;
18206;SDS011;9229;52.354;20.886;2023-06-10T08:56:21;4.68;;;4.38;;
18206;SDS011;9229;52.354;20.886;2023-06-10T09:01:27;6.53;;;3.90;;
18206;SDS011;9229;52.354;20.886;2023-06-10T09:06:31;6.15;;;3.90;;
18206;SDS011;9229;52.354;20.886;2023-06-10T09:11:34;4.22;;;3.83;;
18206;SDS011;9229;52.354;20.886;2023-06-10T09:16:37;3.80;;;3.05;;
18206;SDS011;9229;52.354;20.886;2023-06-10T09:21:40;14.73;;;3.88;;
18206;SDS011;9229;52.354;20.886;2023-06-10T09:26:42;7.13;;;3.78;;
18206;SDS011;9229;52.354;20.886;2023-06-10T09:31:47;11.18;;;3.75;;
18206;SDS011;9229;52.354;20.886;2023-06-10T09:36:49;3.53;;;3.22;;
18206;SDS011;9229;52.354;20.886;2023-06-10T09:41:51;5.68;;;3.75;;
18206;SDS011;9229;52.354;20.886;2023-06-10T09:46:56;7.07;;;3.42;;
18206;SDS011;9229;52.354;20.886;2023-06-10T09:51:59;4.00;;;3.67;;
18206;SDS011;9229;52.354;20.886;2023-06-10T09:57:06;6.00;;;2.97;;
18206;SDS011;9229;52.354;20.886;2023-06-10T10:02:14;3.42;;;3.22;;
18206;SDS011;9229;52.354;20.886;2023-06-10T10:07:17;11.20;;;3.45;;
18206;SDS011;9229;52.354;20.886;2023-06-10T10:12:19;8.98;;;3.17;;
18206;SDS011;9229;52.354;20.886;2023-06-10T10:17:24;9.13;;;3.22;;
18206;SDS011;9229;52.354;20.886;2023-06-10T10:22:28;12.07;;;3.17;;
18206;SDS011;9229;52.354;20.886;2023-06-10T10:27:36;3.60;;;3.30;;
18206;SDS011;9229;52.354;20.886;2023-06-10T10:32:52;3.30;;;2.85;;
18206;SDS011;9229;52.354;20.886;2023-06-10T10:37:59;3.95;;;2.70;;
18206;SDS011;9229;52.354;20.886;2023-06-10T10:43:01;4.10;;;2.75;;
18206;SDS011;9229;52.354;20.886;2023-06-10T10:48:07;10.02;;;3.08;;
18206;SDS011;9229;52.354;20.886;2023-06-10T10:53:11;3.15;;;2.95;;
18206;SDS011;9229;52.354;20.886;2023-06-10T10:58:23;3.30;;;3.08;;
18206;SDS011;9229;52.354;20.886;2023-06-10T11:03:29;6.38;;;2.90;;
18206;SDS011;9229;52.354;20.886;2023-06-10T11:08:46;4.22;;;3.33;;
18206;SDS011;9229;52.354;20.886;2023-06-10T11:14:04;4.82;;;3.55;;
18206;SDS011;9229;52.354;20.886;2023-06-10T11:19:11;3.80;;;2.90;;
18206;SDS011;9229;52.354;20.886;2023-06-10T11:24:33;3.72;;;3.40;;
18206;SDS011;9229;52.354;20.886;2023-06-10T11:29:35;5.43;;;3.13;;
18206;SDS011;9229;52.354;20.886;2023-06-10T11:34:38;6.82;;;3.55;;
18206;SDS011;9229;52.354;20.886;2023-06-10T11:39:41;16.38;;;4.30;;
18206;SDS011;9229;52.354;20.886;2023-06-10T11:44:49;11.43;;;3.45;;
18206;SDS011;9229;52.354;20.886;2023-06-10T11:49:56;3.55;;;3.28;;
18206;SDS011;9229;52.354;20.886;2023-06-10T11:54:59;7.40;;;3.72;;
18206;SDS011;9229;52.354;20.886;2023-06-10T12:00:03;6.32;;;3.88;;
18206;SDS011;9229;52.354;20.886;2023-06-10T12:05:14;7.68;;;3.53;;
18206;SDS011;9229;52.354;20.886;2023-06-10T12:10:18;5.40;;;3.85;;
18206;SDS011;9229;52.354;20.886;2023-06-10T12:15:23;4.72;;;4.32;;
18206;SDS011;9229;52.354;20.886;2023-06-10T12:20:27;7.57;;;3.72;;
18206;SDS011;9229;52.354;20.886;2023-06-10T12:25:31;6.85;;;3.47;;
18206;SDS011;9229;52.354;20.886;2023-06-10T12:30:33;3.50;;;3.20;;
18206;SDS011;9229;52.354;20.886;2023-06-10T12:35:37;4.65;;;4.00;;
18206;SDS011;9229;52.354;20.886;2023-06-10T12:40:49;10.55;;;3.92;;
18206;SDS011;9229;52.354;20.886;2023-06-10T12:45:52;6.53;;;3.38;;
18206;SDS011;9229;52.354;20.886;2023-06-10T12:50:56;4.00;;;3.63;;
18206;SDS011;9229;52.354;20.886;2023-06-10T12:56:00;4.57;;;3.65;;
18206;SDS011;9229;52.354;20.886;2023-06-10T13:01:02;5.18;;;3.25;;
18206;SDS011;9229;52.354;20.886;2023-06-10T13:06:06;4.47;;;3.38;;
18206;SDS011;9229;52.354;20.886;2023-06-10T13:11:08;4.30;;;3.55;;
18206;SDS011;9229;52.354;20.886;2023-06-10T13:16:12;5.05;;;3.65;;
18206;SDS011;9229;52.354;20.886;2023-06-10T13:21:15;6.00;;;3.53;;
18206;SDS011;9229;52.354;20.886;2023-06-10T13:26:17;4.15;;;3.60;;
18206;SDS011;9229;52.354;20.886;2023-06-10T13:31:19;4.28;;;3.50;;
18206;SDS011;9229;52.354;20.886;2023-06-10T13:36:23;4.28;;;3.35;;
18206;SDS011;9229;52.354;20.886;2023-06-10T13:41:25;3.33;;;3.13;;
18206;SDS011;9229;52.354;20.886;2023-06-10T13:46:28;3.42;;;3.08;;
18206;SDS011;9229;52.354;20.886;2023-06-10T13:51:32;3.83;;;3.45;;
18206;SDS011;9229;52.354;20.886;2023-06-10T13:56:34;4.05;;;3.72;;
18206;SDS011;9229;52.354;20.886;2023-06-10T14:01:38;10.07;;;4.85;;
18206;SDS011;9229;52.354;20.886;2023-06-10T14:06:42;4.40;;;4.00;;
18206;SDS011;9229;52.354;20.886;2023-06-10T14:11:44;6.53;;;4.50;;
18206;SDS011;9229;52.354;20.886;2023-06-10T14:16:47;4.70;;;3.90;;
18206;SDS011;9229;52.354;20.886;2023-06-10T14:21:51;5.55;;;4.50;;
18206;SDS011;9229;52.354;20.886;2023-06-10T14:26:54;5.15;;;4.72;;
18206;SDS011;9229;52.354;20.886;2023-06-10T14:31:57;4.65;;;4.25;;
18206;SDS011;9229;52.354;20.886;2023-06-10T14:37:01;4.55;;;4.05;;
18206;SDS011;9229;52.354;20.886;2023-06-10T14:42:07;4.78;;;4.47;;
18206;SDS011;9229;52.354;20.886;2023-06-10T14:47:10;9.75;;;4.90;;
18206;SDS011;9229;52.354;20.886;2023-06-10T14:52:15;5.50;;;4.95;;
18206;SDS011;9229;52.354;20.886;2023-06-10T14:57:17;5.07;;;4.78;;
18206;SDS011;9229;52.354;20.886;2023-06-10T15:02:19;4.38;;;4.03;;
18206;SDS011;9229;52.354;20.886;2023-06-10T15:07:23;5.15;;;4.65;;
18206;SDS011;9229;52.354;20.886;2023-06-10T15:12:25;4.03;;;3.83;;
18206;SDS011;9229;52.354;20.886;2023-06-10T15:17:28;5.40;;;4.45;;
18206;SDS011;9229;52.354;20.886;2023-06-10T15:22:31;5.05;;;4.20;;
18206;SDS011;9229;52.354;20.886;2023-06-10T15:27:34;5.03;;;4.47;;
18206;SDS011;9229;52.354;20.886;2023-06-10T15:32:35;7.30;;;4.78;;
18206;SDS011;9229;52.354;20.886;2023-06-10T15:37:40;5.40;;;3.80;;
18206;SDS011;9229;52.354;20.886;2023-06-10T15:42:42;5.88;;;3.90;;
18206;SDS011;9229;52.354;20.886;2023-06-10T15:47:44;17.30;;;4.63;;
18206;SDS011;9229;52.354;20.886;2023-06-10T15:52:48;9.93;;;5.03;;
18206;SDS011;9229;52.354;20.886;2023-06-10T15:57:50;4.57;;;4.18;;
18206;SDS011;9229;52.354;20.886;2023-06-10T16:02:53;4.93;;;4.53;;
18206;SDS011;9229;52.354;20.886;2023-06-10T16:07:56;4.28;;;3.88;;
18206;SDS011;9229;52.354;20.886;2023-06-10T16:12:59;7.07;;;4.38;;
18206;SDS011;9229;52.354;20.886;2023-06-10T16:18:02;10.40;;;4.50;;
18206;SDS011;9229;52.354;20.886;2023-06-10T16:23:06;6.18;;;4.07;;
18206;SDS011;9229;52.354;20.886;2023-06-10T16:28:08;5.30;;;4.45;;
18206;SDS011;9229;52.354;20.886;2023-06-10T16:33:10;12.52;;;4.47;;
18206;SDS011;9229;52.354;20.886;2023-06-10T16:38:14;8.48;;;4.45;;
18206;SDS011;9229;52.354;20.886;2023-06-10T16:43:15;6.55;;;4.32;;
18206;SDS011;9229;52.354;20.886;2023-06-10T16:48:18;4.35;;;4.05;;
18206;SDS011;9229;52.354;20.886;2023-06-10T16:53:21;6.45;;;3.80;;
18206;SDS011;9229;52.354;20.886;2023-06-10T16:58:23;4.43;;;4.13;;
18206;SDS011;9229;52.354;20.886;2023-06-10T17:03:25;4.68;;;4.38;;
18206;SDS011;9229;52.354;20.886;2023-06-10T17:08:30;7.85;;;3.85;;
18206;SDS011;9229;52.354;20.886;2023-06-10T17:13:34;4.32;;;3.95;;
18206;SDS011;9229;52.354;20.886;2023-06-10T17:18:36;8.75;;;3.97;;
18206;SDS011;9229;52.354;20.886;2023-06-10T17:23:40;9.00;;;4.20;;
18206;SDS011;9229;52.354;20.886;2023-06-10T17:28:42;4.70;;;4.30;;
18206;SDS011;9229;52.354;20.886;2023-06-10T17:33:46;4.25;;;3.92;;
18206;SDS011;9229;52.354;20.886;2023-06-10T17:38:53;6.63;;;4.15;;
18206;SDS011;9229;52.354;20.886;2023-06-10T17:43:55;13.80;;;7.78;;
18206;SDS011;9229;52.354;20.886;2023-06-10T17:48:57;7.03;;;4.85;;
18206;SDS011;9229;52.354;20.886;2023-06-10T17:54:03;10.63;;;4.55;;
18206;SDS011;9229;52.354;20.886;2023-06-10T17:59:07;5.50;;;4.55;;
18206;SDS011;9229;52.354;20.886;2023-06-10T18:04:09;9.55;;;4.82;;
18206;SDS011;9229;52.354;20.886;2023-06-10T18:09:13;4.93;;;4.07;;
18206;SDS011;9229;52.354;20.886;2023-06-10T18:14:16;4.40;;;4.05;;
18206;SDS011;9229;52.354;20.886;2023-06-10T18:19:18;8.05;;;4.72;;
18206;SDS011;9229;52.354;20.886;2023-06-10T18:24:21;6.20;;;4.45;;
18206;SDS011;9229;52.354;20.886;2023-06-10T18:29:25;9.52;;;4.20;;
18206;SDS011;9229;52.354;20.886;2023-06-10T18:34:27;8.85;;;4.45;;
18206;SDS011;9229;52.354;20.886;2023-06-10T18:39:31;6.85;;;4.32;;
18206;SDS011;9229;52.354;20.886;2023-06-10T18:44:34;4.45;;;4.15;;
18206;SDS011;9229;52.354;20.886;2023-06-10T18:49:37;7.47;;;4.88;;
18206;SDS011;9229;52.354;20.886;2023-06-10T18:54:41;4.85;;;4.38;;
18206;SDS011;9229;52.354;20.886;2023-06-10T18:59:42;10.60;;;4.47;;
18206;SDS011;9229;52.354;20.886;2023-06-10T19:04:46;7.38;;;4.55;;
18206;SDS011;9229;52.354;20.886;2023-06-10T19:09:49;4.78;;;4.47;;
18206;SDS011;9229;52.354;20.886;2023-06-10T19:14:52;7.13;;;4.93;;
18206;SDS011;9229;52.354;20.886;2023-06-10T19:19:54;6.80;;;5.60;;
18206;SDS011;9229;52.354;20.886;2023-06-10T19:25:02;8.32;;;5.78;;
18206;SDS011;9229;52.354;20.886;2023-06-10T19:30:06;6.78;;;6.20;;
18206;SDS011;9229;52.354;20.886;2023-06-10T19:35:09;12.32;;;6.13;;
18206;SDS011;9229;52.354;20.886;2023-06-10T19:40:14;6.80;;;6.18;;
18206;SDS011;9229;52.354;20.886;2023-06-10T19:45:17;7.50;;;6.80;;
18206;SDS011;9229;52.354;20.886;2023-06-10T19:50:20;8.05;;;6.60;;
18206;SDS011;9229;52.354;20.886;2023-06-10T19:55:24;14.02;;;7.07;;
18206;SDS011;9229;52.354;20.886;2023-06-10T20:00:26;11.35;;;6.65;;
18206;SDS011;9229;52.354;20.886;2023-06-10T20:05:29;9.45;;;7.13;;
18206;SDS011;9229;52.354;20.886;2023-06-10T20:10:34;10.68;;;7.10;;
18206;SDS011;9229;52.354;20.886;2023-06-10T20:15:37;8.07;;;7.40;;
18206;SDS011;9229;52.354;20.886;2023-06-10T20:20:39;7.28;;;6.47;;
18206;SDS011;9229;52.354;20.886;2023-06-10T20:25:42;7.78;;;6.82;;
18206;SDS011;9229;52.354;20.886;2023-06-10T20:30:44;6.88;;;6.22;;
18206;SDS011;9229;52.354;20.886;2023-06-10T20:35:46;12.25;;;6.70;;
18206;SDS011;9229;52.354;20.886;2023-06-10T20:40:50;8.63;;;6.03;;
18206;SDS011;9229;52.354;20.886;2023-06-10T20:45:52;7.97;;;6.03;;
18206;SDS011;9229;52.354;20.886;2023-06-10T20:50:54;6.70;;;6.10;;
18206;SDS011;9229;52.354;20.886;2023-06-10T20:55:59;5.82;;;5.30;;
18206;SDS011;9229;52.354;20.886;2023-06-10T21:01:01;5.68;;;5.20;;
18206;SDS011;9229;52.354;20.886;2023-06-10T21:06:04;7.82;;;5.55;;
18206;SDS011;9229;52.354;20.886;2023-06-10T21:11:09;6.10;;;5.40;;
18206;SDS011;9229;52.354;20.886;2023-06-10T21:16:11;8.32;;;5.90;;
18206;SDS011;9229;52.354;20.886;2023-06-10T21:21:13;5.72;;;5.20;;
18206;SDS011;9229;52.354;20.886;2023-06-10T21:26:17;5.78;;;5.18;;
18206;SDS011;9229;52.354;20.886;2023-06-10T21:31:18;9.02;;;5.53;;
18206;SDS011;9229;52.354;20.886;2023-06-10T21:36:21;6.32;;;5.70;;
18206;SDS011;9229;52.354;20.886;2023-06-10T21:41:26;12.98;;;5.88;;
18206;SDS011;9229;52.354;20.886;2023-06-10T21:46:29;9.77;;;6.05;;
18206;SDS011;9229;52.354;20.886;2023-06-10T21:51:33;7.20;;;6.20;;
18206;SDS011;9229;52.354;20.886;2023-06-10T21:56:36;10.88;;;5.30;;
18206;SDS011;9229;52.354;20.886;2023-06-10T22:01:39;5.80;;;4.88;;
18206;SDS011;9229;52.354;20.886;2023-06-10T22:06:41;9.80;;;4.70;;
18206;SDS011;9229;52.354;20.886;2023-06-10T22:11:44;6.32;;;4.75;;
18206;SDS011;9229;52.354;20.886;2023-06-10T22:16:46;7.82;;;5.15;;
18206;SDS011;9229;52.354;20.886;2023-06-10T22:21:49;5.40;;;5.00;;
18206;SDS011;9229;52.354;20.886;2023-06-10T22:26:52;5.40;;;4.90;;
18206;SDS011;9229;52.354;20.886;2023-06-10T22:31:54;6.78;;;4.82;;
18206;SDS011;9229;52.354;20.886;2023-06-10T22:36:57;4.80;;;4.40;;
18206;SDS011;9229;52.354;20.886;2023-06-10T22:42:00;5.50;;;4.97;;
18206;SDS011;9229;52.354;20.886;2023-06-10T22:47:05;5.28;;;4.78;;
18206;SDS011;9229;52.354;20.886;2023-06-10T22:52:07;5.32;;;4.63;;
18206;SDS011;9229;52.354;20.886;2023-06-10T22:57:13;5.85;;;5.00;;
18206;SDS011;9229;52.354;20.886;2023-06-10T23:02:15;5.15;;;4.75;;
18206;SDS011;9229;52.354;20.886;2023-06-10T23:07:17;5.70;;;4.97;;
18206;SDS011;9229;52.354;20.886;2023-06-10T23:12:21;6.38;;;4.95;;
18206;SDS011;9229;52.354;20.886;2023-06-10T23:17:24;6.60;;;4.93;;
18206;SDS011;9229;52.354;20.886;2023-06-10T23:22:28;5.78;;;4.65;;
18206;SDS011;9229;52.354;20.886;2023-06-10T23:27:33;6.75;;;4.65;;
18206;SDS011;9229;52.354;20.886;2023-06-10T23:32:35;6.43;;;4.80;;
18206;SDS011;9229;52.354;20.886;2023-06-10T23:37:37;5.78;;;4.13;;
18206;SDS011;9229;52.354;20.886;2023-06-10T23:42:40;4.85;;;4.50;;
18206;SDS011;9229;52.354;20.886;2023-06-10T23:47:42;5.60;;;4.10;;
18206;SDS011;9229;52.354;20.886;2023-06-10T23:52:45;4.20;;;3.92;;
18206;SDS011;9229;52.354;20.886;2023-06-10T23:57:48;5.47;;;4.43;;
